Time;durP1;ratioP1;P1;durP2;ratioP2;P2;SDS_P1;SDS_P2;PMS_P1;PMS_P2;Temp;Humidity;BMP_temperature;BMP_pressure;BME280_temperature;BME280_humidity;BME280_pressure;Samples;Min_cycle;Max_cycle;Signal;HPM_P1;HPM_P2
2021/11/07 00:08:58;;;;;;;113.68;54.88;;;-1.30;99.90;;;;;;5081704;28;20036;-75
2021/11/07 00:11:43;;;;;;;115.05;57.28;;;-1.30;99.90;;;;;;5088558;28;20379;-75
2021/11/07 00:14:11;;;;;;;123.45;60.28;;;-1.30;99.90;;;;;;5093158;28;20389;-76
2021/11/07 00:16:39;;;;;;;86.38;42.47;;;-1.30;99.90;;;;;;5091220;28;20035;-75
2021/11/07 00:21:51;;;;;;;79.18;40.22;;;-1.40;99.90;;;;;;5093294;28;20081;-75
2021/11/07 00:24:33;;;;;;;114.45;54.65;;;-1.40;99.90;;;;;;5091675;28;20085;-75
2021/11/07 00:37:43;;;;;;;100.97;54.80;;;-1.50;99.90;;;;;;5072931;28;20051;-76
2021/11/07 00:43:05;;;;;;;110.93;54.80;;;-1.40;99.90;;;;;;5073217;28;20036;-75
2021/11/07 00:50:49;;;;;;;68.72;36.88;;;-1.50;99.90;;;;;;5072869;28;20025;-75
2021/11/07 00:53:40;;;;;;;85.78;43.22;;;-1.50;99.90;;;;;;5072712;28;20099;-75
2021/11/07 00:58:44;;;;;;;91.43;44.70;;;-1.50;99.90;;;;;;5072704;28;20060;-75
2021/11/07 01:01:15;;;;;;;99.88;48.45;;;-1.50;99.90;;;;;;5072597;28;20088;-75
2021/11/07 01:03:41;;;;;;;112.60;55.58;;;-1.60;99.90;;;;;;5072442;28;20428;-76
2021/11/07 01:06:07;;;;;;;120.00;60.13;;;-1.60;99.90;;;;;;5071125;28;20032;-76
2021/11/07 01:08:34;;;;;;;119.72;58.50;;;-1.70;99.90;;;;;;5072350;28;20096;-76
2021/11/07 01:11:00;;;;;;;131.65;64.60;;;-1.60;99.90;;;;;;5072379;28;20458;-76
2021/11/07 01:13:27;;;;;;;145.73;70.57;;;-1.70;99.90;;;;;;5071111;28;20401;-76
2021/11/07 01:15:53;;;;;;;152.73;71.85;;;-1.80;99.90;;;;;;5072235;28;20458;-76
2021/11/07 01:18:20;;;;;;;148.43;68.20;;;-1.80;99.90;;;;;;5072277;28;20024;-75
2021/11/07 01:20:46;;;;;;;115.95;58.70;;;-1.80;99.90;;;;;;5072242;28;20029;-75
2021/11/07 01:23:17;;;;;;;100.20;49.58;;;-1.80;99.90;;;;;;5072307;28;20031;-75
2021/11/07 01:25:53;;;;;;;153.10;60.30;;;-1.90;99.90;;;;;;5070813;28;20021;-75
2021/11/07 01:28:23;;;;;;;130.93;56.28;;;-1.90;99.90;;;;;;5075917;28;20020;-75
2021/11/07 01:30:53;;;;;;;118.85;52.85;;;-1.90;99.90;;;;;;5075747;28;20513;-75
2021/11/07 01:33:24;;;;;;;121.63;54.80;;;-1.90;99.90;;;;;;5074520;28;20027;-75
2021/11/07 01:41:20;;;;;;;161.45;68.63;;;-1.90;99.90;;;;;;5076006;28;20125;-76
2021/11/07 01:43:46;;;;;;;140.52;70.63;;;-1.90;99.90;;;;;;5075617;28;20021;-76
2021/11/07 01:51:34;;;;;;;111.25;50.95;;;-1.90;99.90;;;;;;5075714;28;20162;-75
2021/11/07 01:54:18;;;;;;;124.10;49.65;;;-2.00;99.90;;;;;;5075618;28;20031;-75
2021/11/07 01:56:44;;;;;;;110.35;45.30;;;-2.00;99.90;;;;;;5075395;28;20381;-75
2021/11/07 01:59:09;;;;;;;135.02;53.42;;;-2.00;99.90;;;;;;5074049;28;20028;-75
2021/11/07 02:01:35;;;;;;;125.50;47.55;;;-2.00;99.90;;;;;;5075228;28;20135;-75
2021/11/07 02:04:01;;;;;;;107.03;45.85;;;-1.90;99.90;;;;;;5075105;28;20048;-75
2021/11/07 02:06:27;;;;;;;99.82;49.08;;;-1.90;99.90;;;;;;5075118;28;20569;-75
2021/11/07 02:08:52;;;;;;;111.45;49.20;;;-2.00;99.90;;;;;;5073692;28;20032;-75
2021/11/07 02:11:18;;;;;;;127.47;54.08;;;-2.00;99.90;;;;;;5073825;28;20051;-76
2021/11/07 02:13:46;;;;;;;140.98;61.17;;;-2.00;99.90;;;;;;5073731;28;20029;-75
2021/11/07 02:16:12;;;;;;;145.10;66.32;;;-2.00;99.90;;;;;;5074942;28;20021;-75
2021/11/07 02:18:38;;;;;;;91.30;44.13;;;-2.00;99.90;;;;;;5074919;28;20024;-75
2021/11/07 02:21:05;;;;;;;87.82;40.50;;;-2.00;99.90;;;;;;5074843;28;20024;-75
2021/11/07 02:23:32;;;;;;;72.60;36.00;;;-2.00;99.90;;;;;;5074851;28;20036;-75
2021/11/07 02:26:03;;;;;;;70.32;32.67;;;-1.90;99.90;;;;;;5074672;28;20390;-76
2021/11/07 02:28:34;;;;;;;73.10;32.30;;;-1.80;99.90;;;;;;5073753;28;20029;-75
2021/11/07 02:31:02;;;;;;;69.88;34.88;;;-1.60;99.90;;;;;;5074750;28;20017;-75
2021/11/07 02:33:28;;;;;;;66.32;33.15;;;-1.60;99.90;;;;;;5074618;28;20016;-76
2021/11/07 02:35:53;;;;;;;77.03;35.13;;;-1.60;99.90;;;;;;5074475;28;20020;-75
2021/11/07 02:38:20;;;;;;;83.32;40.15;;;-1.70;99.90;;;;;;5074044;28;20031;-75
2021/11/07 02:40:46;;;;;;;126.47;54.05;;;-1.70;99.90;;;;;;5074384;28;20025;-75
2021/11/07 02:43:12;;;;;;;89.05;44.97;;;-1.80;99.90;;;;;;5074595;28;20021;-75
2021/11/07 02:45:37;;;;;;;98.32;48.45;;;-1.80;99.90;;;;;;5082537;28;20028;-75
2021/11/07 02:48:03;;;;;;;81.95;39.15;;;-1.80;99.90;;;;;;5094528;28;20401;-75
2021/11/07 02:50:29;;;;;;;83.65;40.20;;;-1.90;99.90;;;;;;5094493;28;20028;-75
2021/11/07 02:52:55;;;;;;;85.18;39.50;;;-1.80;99.90;;;;;;5093237;28;20023;-75
2021/11/07 02:55:22;;;;;;;84.05;38.95;;;-1.90;99.90;;;;;;5094339;28;20423;-76
2021/11/07 02:57:49;;;;;;;75.25;35.47;;;-1.90;99.90;;;;;;5094413;28;20050;-75
2021/11/07 03:00:19;;;;;;;64.00;32.53;;;-1.90;99.90;;;;;;5094402;28;20047;-75
2021/11/07 03:02:45;;;;;;;62.85;32.05;;;-1.90;99.90;;;;;;5093111;28;20119;-75
2021/11/07 03:05:12;;;;;;;60.70;30.05;;;-1.80;99.90;;;;;;5094198;28;20465;-75
2021/11/07 03:07:42;;;;;;;62.03;31.30;;;-1.80;99.90;;;;;;5094076;28;20036;-75
2021/11/07 03:10:10;;;;;;;68.75;33.65;;;-1.70;99.90;;;;;;5094488;28;20450;-75
2021/11/07 03:12:37;;;;;;;66.82;37.05;;;-1.70;99.90;;;;;;5094027;28;20462;-75
2021/11/07 03:15:04;;;;;;;67.85;33.25;;;-1.50;99.90;;;;;;5094042;28;20530;-75
2021/11/07 03:17:30;;;;;;;57.78;30.27;;;-1.60;99.90;;;;;;5093854;28;20024;-75
2021/11/07 03:19:56;;;;;;;57.97;31.23;;;-1.60;99.90;;;;;;5093963;28;20035;-76
2021/11/07 03:22:26;;;;;;;72.95;36.67;;;-1.70;99.90;;;;;;5093915;28;20032;-76
2021/11/07 03:24:54;;;;;;;83.65;39.30;;;-1.70;99.90;;;;;;5093877;28;20493;-76
2021/11/07 03:27:30;;;;;;;88.55;45.80;;;-1.80;99.90;;;;;;5092502;28;20039;-76
2021/11/07 03:29:58;;;;;;;111.53;51.17;;;-1.80;99.90;;;;;;5093741;28;20031;-76
2021/11/07 03:32:30;;;;;;;127.82;54.47;;;-1.90;99.90;;;;;;5093688;28;20359;-76
2021/11/07 03:35:01;;;;;;;113.55;50.17;;;-1.90;99.90;;;;;;5092448;28;20055;-75
2021/11/07 03:37:29;;;;;;;114.20;52.78;;;-1.90;99.90;;;;;;5093757;28;20026;-75
2021/11/07 03:39:58;;;;;;;111.68;53.38;;;-1.90;99.90;;;;;;5092297;28;20051;-75
2021/11/07 03:42:25;;;;;;;115.47;52.92;;;-1.90;99.90;;;;;;5093556;28;20099;-75
2021/11/07 03:44:51;;;;;;;103.80;46.70;;;-1.90;99.90;;;;;;5093463;28;20048;-75
2021/11/07 03:47:17;;;;;;;82.93;40.65;;;-1.80;99.90;;;;;;5093434;28;20067;-75
2021/11/07 03:49:43;;;;;;;78.80;40.53;;;-1.80;99.90;;;;;;5092543;28;20035;-75
2021/11/07 03:52:11;;;;;;;76.30;37.00;;;-1.80;99.90;;;;;;5093476;28;20024;-75
2021/11/07 03:54:39;;;;;;;72.70;36.30;;;-1.80;99.90;;;;;;5093273;28;20514;-76
2021/11/07 03:57:04;;;;;;;69.70;35.05;;;-1.70;99.90;;;;;;5092080;28;20120;-76
2021/11/07 03:59:31;;;;;;;71.07;34.55;;;-1.70;99.90;;;;;;5091413;28;20465;-75
2021/11/07 04:01:57;;;;;;;66.75;32.38;;;-1.70;99.90;;;;;;5075061;28;20104;-75
2021/11/07 04:04:23;;;;;;;65.38;34.70;;;-1.70;99.90;;;;;;5072969;28;20060;-75
2021/11/07 04:06:50;;;;;;;68.13;31.70;;;-1.80;99.90;;;;;;5092455;28;20493;-75
2021/11/07 04:09:16;;;;;;;60.35;30.30;;;-1.70;99.90;;;;;;5091802;28;20074;-75
2021/11/07 04:11:42;;;;;;;57.50;30.70;;;-1.80;99.90;;;;;;5093150;28;20016;-76
2021/11/07 04:14:10;;;;;;;75.03;36.60;;;-1.80;99.90;;;;;;5091795;28;20016;-76
2021/11/07 04:16:37;;;;;;;79.03;36.15;;;-1.80;99.90;;;;;;5093046;28;20103;-76
2021/11/07 04:19:04;;;;;;;60.75;31.67;;;-1.80;99.90;;;;;;5093062;28;20529;-76
2021/11/07 04:21:30;;;;;;;92.78;41.50;;;-1.80;99.90;;;;;;5092980;28;20020;-76
2021/11/07 04:23:55;;;;;;;76.32;38.28;;;-1.80;99.90;;;;;;5091765;28;20070;-76
2021/11/07 04:26:23;;;;;;;69.30;34.30;;;-1.80;99.90;;;;;;5092870;28;20028;-75
2021/11/07 04:28:49;;;;;;;96.95;45.45;;;-1.80;99.90;;;;;;5092917;28;20024;-75
2021/11/07 04:31:15;;;;;;;79.10;34.38;;;-1.70;99.90;;;;;;5083509;28;20020;-75
2021/11/07 04:33:42;;;;;;;60.47;28.77;;;-1.70;99.90;;;;;;5071470;28;20021;-75
2021/11/07 04:36:07;;;;;;;59.97;29.30;;;-1.70;99.90;;;;;;5072742;28;20028;-75
2021/11/07 04:38:35;;;;;;;56.55;31.33;;;-1.70;99.90;;;;;;5072692;28;20423;-75
2021/11/07 04:41:01;;;;;;;55.15;28.67;;;-1.70;99.90;;;;;;5071318;28;20036;-76
2021/11/07 04:43:27;;;;;;;62.42;30.70;;;-1.60;99.90;;;;;;5072658;28;20540;-75
2021/11/07 04:45:53;;;;;;;60.28;32.28;;;-1.60;99.90;;;;;;5072483;28;20021;-75
2021/11/07 04:48:19;;;;;;;63.42;35.08;;;-1.60;99.90;;;;;;5072659;28;20019;-75
2021/11/07 04:50:46;;;;;;;67.43;32.90;;;-1.50;99.90;;;;;;5072510;28;20032;-75
2021/11/07 04:53:14;;;;;;;65.55;34.28;;;-1.50;99.90;;;;;;5072629;28;20047;-75
2021/11/07 04:55:42;;;;;;;69.93;37.55;;;-1.40;99.90;;;;;;5072468;28;20020;-75
2021/11/07 04:58:10;;;;;;;76.03;36.13;;;-1.40;99.90;;;;;;5071290;28;20393;-75
2021/11/07 05:00:37;;;;;;;73.07;38.25;;;-1.40;99.90;;;;;;5071035;28;20367;-75
2021/11/07 05:03:04;;;;;;;76.45;39.95;;;-1.30;99.90;;;;;;5074964;28;20094;-75
2021/11/07 05:05:31;;;;;;;69.18;33.72;;;-1.20;99.90;;;;;;5074932;28;20555;-75
2021/11/07 05:07:57;;;;;;;64.57;31.55;;;-1.20;99.90;;;;;;5074879;28;20036;-75
2021/11/07 05:10:24;;;;;;;63.60;32.65;;;-1.30;99.90;;;;;;5076490;28;20033;-75
2021/11/07 05:12:49;;;;;;;70.78;35.30;;;-1.40;99.90;;;;;;5074833;28;20028;-75
2021/11/07 05:15:15;;;;;;;60.58;29.65;;;-1.50;99.90;;;;;;5076106;28;20538;-75
2021/11/07 05:17:41;;;;;;;64.43;32.35;;;-1.50;99.90;;;;;;5074807;28;20056;-75
2021/11/07 05:20:08;;;;;;;68.97;32.90;;;-1.50;99.90;;;;;;5076036;28;20025;-75
2021/11/07 05:22:34;;;;;;;73.70;35.05;;;-1.50;99.90;;;;;;5083516;28;20485;-76
2021/11/07 05:25:00;;;;;;;78.78;38.28;;;-1.50;99.90;;;;;;5095518;28;20107;-76
2021/11/07 05:27:26;;;;;;;66.40;34.50;;;-1.50;99.90;;;;;;5095837;28;20122;-76
2021/11/07 05:29:51;;;;;;;64.35;35.22;;;-1.50;99.90;;;;;;5093425;28;20112;-76
2021/11/07 05:32:18;;;;;;;79.22;39.17;;;-1.40;99.90;;;;;;5094586;28;20044;-75
2021/11/07 05:34:45;;;;;;;84.20;43.60;;;-1.40;99.90;;;;;;5095547;28;20024;-75
2021/11/07 05:37:11;;;;;;;94.85;44.97;;;-1.30;99.90;;;;;;5092965;28;20032;-75
2021/11/07 05:39:37;;;;;;;103.70;48.58;;;-1.20;99.90;;;;;;5093233;28;20024;-75
2021/11/07 05:42:03;;;;;;;81.30;42.65;;;-1.20;99.90;;;;;;5095199;28;20061;-75
2021/11/07 05:44:29;;;;;;;79.65;38.55;;;-1.20;99.90;;;;;;5095028;28;20016;-75
2021/11/07 05:46:55;;;;;;;70.57;36.28;;;-1.20;99.90;;;;;;5093816;28;20036;-75
2021/11/07 05:49:21;;;;;;;69.25;36.42;;;-1.30;99.90;;;;;;5094542;28;20092;-75
2021/11/07 05:51:47;;;;;;;59.72;30.60;;;-1.30;99.90;;;;;;5094547;28;20024;-75
2021/11/07 05:54:13;;;;;;;115.35;49.33;;;-1.30;99.90;;;;;;5091436;28;20112;-76
2021/11/07 05:56:38;;;;;;;90.15;42.88;;;-1.30;99.90;;;;;;5093479;28;20485;-75
2021/11/07 05:59:05;;;;;;;61.47;31.10;;;-1.30;99.90;;;;;;5095473;28;20034;-75
2021/11/07 06:01:30;;;;;;;60.95;32.60;;;-1.30;99.90;;;;;;5095496;28;20020;-75
2021/11/07 06:03:56;;;;;;;62.60;31.73;;;-1.10;99.90;;;;;;5095440;28;20500;-75
2021/11/07 06:06:22;;;;;;;57.13;31.42;;;-1.00;99.90;;;;;;5094020;28;20404;-76
2021/11/07 06:08:48;;;;;;;64.55;33.30;;;-0.90;99.90;;;;;;5095610;28;20089;-76
2021/11/07 06:11:14;;;;;;;66.20;34.97;;;-0.80;99.90;;;;;;5095434;28;20477;-76
2021/11/07 06:13:40;;;;;;;71.80;34.08;;;-0.80;99.90;;;;;;5093065;28;20035;-76
2021/11/07 06:16:05;;;;;;;67.03;34.83;;;-0.90;99.90;;;;;;5095195;28;20032;-75
2021/11/07 06:18:31;;;;;;;68.20;32.92;;;-0.90;99.90;;;;;;5095207;28;20027;-75
2021/11/07 06:20:58;;;;;;;71.90;34.00;;;-0.90;99.90;;;;;;5095148;28;20020;-75
2021/11/07 06:23:25;;;;;;;72.00;34.53;;;-0.90;99.90;;;;;;5093821;28;20024;-75
2021/11/07 06:25:51;;;;;;;77.70;41.33;;;-0.90;99.90;;;;;;5095212;28;20401;-75
2021/11/07 06:28:17;;;;;;;61.17;34.70;;;-1.00;99.90;;;;;;5093786;28;20021;-75
2021/11/07 06:30:44;;;;;;;63.00;35.97;;;-0.90;99.90;;;;;;5094906;28;20013;-75
2021/11/07 06:33:09;;;;;;;69.05;34.55;;;-0.90;99.90;;;;;;5093676;28;20073;-75
2021/11/07 06:35:35;;;;;;;77.25;38.50;;;-0.80;99.90;;;;;;5094786;28;20091;-75
2021/11/07 06:38:01;;;;;;;67.30;34.10;;;-0.80;99.90;;;;;;5094551;28;20480;-75
2021/11/07 06:40:27;;;;;;;83.05;41.00;;;-0.70;99.90;;;;;;5094670;28;20028;-76
2021/11/07 06:42:53;;;;;;;74.53;36.78;;;-0.70;99.90;;;;;;5093423;28;20012;-76
2021/11/07 06:45:19;;;;;;;68.22;34.88;;;-0.60;99.90;;;;;;5094072;28;20104;-75
2021/11/07 06:47:45;;;;;;;65.78;35.67;;;-0.60;99.90;;;;;;5093408;28;20028;-76
2021/11/07 06:50:12;;;;;;;65.78;33.35;;;-0.50;99.90;;;;;;5092688;28;20479;-76
2021/11/07 06:52:40;;;;;;;60.67;31.15;;;-0.40;99.90;;;;;;5093715;28;20485;-76
2021/11/07 06:55:07;;;;;;;59.65;33.42;;;-0.30;99.90;;;;;;5084172;28;20056;-76
2021/11/07 06:57:33;;;;;;;70.43;36.40;;;-0.20;99.90;;;;;;5083103;28;20463;-74
2021/11/07 06:59:59;;;;;;;65.65;35.65;;;0.00;99.90;;;;;;5086285;28;20103;-73
2021/11/07 07:02:25;;;;;;;61.95;32.20;;;0.00;99.90;;;;;;5088707;28;20371;-75
2021/11/07 07:04:51;;;;;;;59.88;31.20;;;0.20;99.90;;;;;;5085541;28;20485;-77
2021/11/07 07:07:18;;;;;;;63.25;34.65;;;0.40;99.90;;;;;;5089457;28;20031;-74
2021/11/07 07:09:49;;;;;;;57.83;30.40;;;0.60;99.90;;;;;;5088682;28;20035;-73
2021/11/07 07:15:08;;;;;;;53.58;29.23;;;0.90;99.90;;;;;;5079232;28;20090;-75
2021/11/07 07:20:23;;;;;;;56.42;28.98;;;1.30;99.90;;;;;;5084922;28;20039;-75
2021/11/07 07:33:27;;;;;;;49.10;27.90;;;2.20;99.90;;;;;;5086182;28;20031;-75
2021/11/07 07:35:40;;;;;;;48.38;26.30;;;2.40;99.90;;;;;;5088018;28;20032;-75
2021/11/07 07:38:06;;;;;;;43.60;25.95;;;2.60;99.90;;;;;;5091064;28;20390;-75
2021/11/07 07:40:31;;;;;;;44.17;24.10;;;2.80;99.90;;;;;;5088468;28;20470;-75
2021/11/07 07:42:57;;;;;;;44.08;25.00;;;3.00;99.90;;;;;;5089675;28;20057;-77
2021/11/07 07:45:23;;;;;;;44.08;23.52;;;3.20;99.90;;;;;;5084052;28;20031;-75
2021/11/07 07:47:49;;;;;;;38.92;21.52;;;3.30;99.90;;;;;;5083814;28;20032;-75
2021/11/07 07:50:17;;;;;;;39.45;21.50;;;3.50;99.90;;;;;;5077244;28;20028;-74
2021/11/07 07:52:43;;;;;;;38.35;21.75;;;3.50;99.90;;;;;;5084030;28;20021;-74
2021/11/07 07:55:10;;;;;;;34.25;20.70;;;3.70;99.90;;;;;;5091035;28;20069;-75
2021/11/07 07:57:37;;;;;;;35.78;21.90;;;3.80;99.90;;;;;;5081395;28;20016;-74
2021/11/07 08:00:09;;;;;;;35.53;19.73;;;3.80;99.90;;;;;;5081223;28;20031;-74
2021/11/07 08:02:35;;;;;;;37.25;22.65;;;3.90;99.90;;;;;;5079774;28;20377;-75
2021/11/07 08:05:01;;;;;;;37.88;21.20;;;4.00;99.90;;;;;;5078789;28;20028;-75
2021/11/07 08:07:27;;;;;;;36.83;20.70;;;4.10;99.90;;;;;;5072877;28;20457;-75
2021/11/07 08:09:56;;;;;;;33.50;18.50;;;4.20;99.90;;;;;;5077655;28;20105;-74
2021/11/07 08:12:22;;;;;;;30.13;16.42;;;4.40;99.90;;;;;;5077293;28;20021;-74
2021/11/07 08:14:49;;;;;;;33.72;18.38;;;4.60;99.90;;;;;;5073233;28;20111;-75
2021/11/07 08:17:15;;;;;;;27.80;17.48;;;4.80;99.90;;;;;;5088806;28;20469;-74
2021/11/07 08:19:41;;;;;;;27.80;15.90;;;5.10;99.90;;;;;;5082950;28;20473;-75
2021/11/07 08:22:07;;;;;;;24.65;15.30;;;5.10;99.90;;;;;;5089199;28;20098;-75
2021/11/07 08:24:35;;;;;;;25.23;14.82;;;5.20;99.90;;;;;;5084722;28;20453;-75
2021/11/07 08:27:01;;;;;;;23.88;15.10;;;5.30;99.90;;;;;;5085218;28;20038;-74
2021/11/07 08:29:27;;;;;;;31.02;16.38;;;5.40;99.90;;;;;;5085514;28;20070;-74
2021/11/07 08:31:53;;;;;;;23.67;12.43;;;5.50;99.90;;;;;;5089112;28;20013;-74
2021/11/07 08:34:23;;;;;;;21.17;13.23;;;5.60;99.90;;;;;;5088973;28;20020;-74
2021/11/07 08:36:55;;;;;;;18.75;11.18;;;5.80;99.90;;;;;;5092389;28;20016;-74
2021/11/07 08:39:29;;;;;;;21.65;12.07;;;5.90;99.90;;;;;;5086370;28;20052;-74
2021/11/07 08:42:04;;;;;;;18.60;10.68;;;5.90;99.90;;;;;;5082042;28;20112;-74
2021/11/07 09:02:00;;;;;;;24.63;15.57;;;6.60;99.90;;;;;;5089678;28;20115;-74
2021/11/07 09:09:13;;;;;;;15.48;9.85;;;7.10;99.90;;;;;;5093515;28;20048;-74
2021/11/07 09:11:49;;;;;;;17.23;9.18;;;7.10;99.90;;;;;;5091303;28;20035;-74
2021/11/07 09:14:22;;;;;;;15.95;9.52;;;7.10;99.90;;;;;;5088659;28;20081;-74
2021/11/07 09:16:49;;;;;;;15.52;9.75;;;7.10;99.90;;;;;;5085479;28;20021;-74
2021/11/07 09:19:20;;;;;;;12.70;8.60;;;7.20;99.90;;;;;;5093117;28;20016;-74
2021/11/07 09:21:50;;;;;;;13.05;8.00;;;7.20;99.90;;;;;;5095765;28;20446;-74
2021/11/07 09:24:36;;;;;;;16.50;8.85;;;7.20;99.90;;;;;;5094672;28;20024;-75
2021/11/07 09:27:08;;;;;;;14.10;8.60;;;7.20;99.90;;;;;;5095447;28;20036;-75
2021/11/07 09:29:54;;;;;;;10.25;6.75;;;7.30;99.90;;;;;;5095143;28;20018;-75
2021/11/07 09:40:09;;;;;;;38.72;18.08;;;7.60;97.50;;;;;;5092916;28;20481;-74
2021/11/07 09:45:43;;;;;;;44.67;17.80;;;7.70;95.00;;;;;;5093594;28;20100;-74
2021/11/07 09:48:37;;;;;;;18.45;8.75;;;7.80;96.30;;;;;;5087747;28;20040;-74
2021/11/07 09:50:44;;;;;;;222.68;87.05;;;7.90;93.90;;;;;;5088528;27;20118;-75
2021/11/07 09:53:10;;;;;;;97.95;35.05;;;8.00;90.00;;;;;;5091357;28;20111;-74
2021/11/07 09:55:36;;;;;;;37.50;14.68;;;8.10;91.00;;;;;;5092625;28;20115;-73
2021/11/07 09:58:03;;;;;;;20.83;9.23;;;8.20;89.20;;;;;;5094425;27;20036;-73
2021/11/07 10:00:41;;;;;;;48.97;17.98;;;8.20;87.70;;;;;;5093585;28;20107;-74
2021/11/07 10:03:07;;;;;;;41.08;18.05;;;8.10;89.50;;;;;;5074962;28;20028;-73
2021/11/07 10:05:39;;;;;;;62.55;23.63;;;8.20;87.80;;;;;;5072526;28;20016;-74
2021/11/07 10:08:07;;;;;;;44.45;16.95;;;8.40;89.40;;;;;;5074200;28;20094;-74
2021/11/07 10:10:37;;;;;;;56.00;20.02;;;8.50;86.50;;;;;;5072641;28;20035;-74
2021/11/07 10:13:19;;;;;;;38.08;13.63;;;8.60;88.40;;;;;;5081513;28;20378;-74
2021/11/07 10:15:51;;;;;;;59.75;23.25;;;8.50;87.60;;;;;;5086094;28;20027;-74
2021/11/07 10:21:22;;;;;;;45.22;15.60;;;8.50;87.80;;;;;;5074589;28;20259;-73
2021/11/07 10:24:07;;;;;;;76.57;27.20;;;8.50;87.70;;;;;;5073203;28;20025;-73
2021/11/07 10:26:39;;;;;;;44.85;16.70;;;8.50;88.40;;;;;;5074045;28;20055;-73
2021/11/07 10:29:08;;;;;;;45.13;15.43;;;8.70;87.20;;;;;;5091183;28;20028;-73
2021/11/07 10:31:44;;;;;;;62.03;21.88;;;8.70;85.40;;;;;;5093322;27;20293;-73
2021/11/07 10:52:39;;;;;;;16.83;7.88;;;9.50;84.30;;;;;;5073741;28;20496;-73
2021/11/07 10:55:14;;;;;;;34.10;14.55;;;9.40;80.90;;;;;;5073701;28;20032;-73
2021/11/07 10:57:44;;;;;;;15.27;7.85;;;9.50;78.40;;;;;;5073584;28;20051;-73
2021/11/07 11:00:20;;;;;;;79.20;34.60;;;9.60;78.10;;;;;;5071107;28;20020;-73
2021/11/07 11:02:52;;;;;;;46.05;14.25;;;9.60;76.90;;;;;;5091535;27;20096;-73
2021/11/07 11:05:25;;;;;;;25.92;9.40;;;9.60;76.00;;;;;;5093792;28;20027;-73
2021/11/07 11:07:59;;;;;;;23.17;7.78;;;9.70;75.00;;;;;;5091879;28;20028;-73
2021/11/07 11:10:38;;;;;;;23.98;11.75;;;9.60;74.40;;;;;;5091267;28;20040;-73
2021/11/07 11:13:22;;;;;;;27.33;15.27;;;9.50;75.90;;;;;;5093467;27;20478;-73
2021/11/07 11:16:38;;;;;;;28.70;9.07;;;9.40;75.50;;;;;;5089863;28;20028;-74
2021/11/07 11:22:01;;;;;;;11.68;5.68;;;9.60;74.50;;;;;;5093486;27;20093;-73
2021/11/07 11:43:22;;;;;;;16.08;8.07;;;10.00;71.70;;;;;;5089038;28;20027;-74
2021/11/07 11:45:56;;;;;;;14.88;7.40;;;10.00;72.20;;;;;;5090528;28;20457;-74
2021/11/07 11:49:00;;;;;;;11.40;6.78;;;10.00;71.70;;;;;;5093553;28;20115;-74
2021/11/07 11:54:57;;;;;;;10.75;5.55;;;10.10;70.80;;;;;;5093389;28;20024;-73
2021/11/07 12:02:58;;;;;;;18.35;7.60;;;10.30;70.20;;;;;;5088369;28;20031;-74
2021/11/07 12:08:16;;;;;;;14.30;6.55;;;10.30;69.10;;;;;;5091486;28;20112;-74
2021/11/07 12:13:57;;;;;;;10.85;5.63;;;10.20;69.20;;;;;;5076605;28;20036;-74
2021/11/07 12:16:41;;;;;;;;;;;10.20;70.80;;;;;;5072472;28;20035;-73
2021/11/07 12:19:10;;;;;;;9.25;5.60;;;10.20;70.60;;;;;;5073128;28;19905;-73
2021/11/07 12:21:50;;;;;;;9.73;6.00;;;10.00;70.80;;;;;;5078388;28;20385;-74
2021/11/07 12:24:18;;;;;;;12.73;5.72;;;9.90;70.20;;;;;;5090976;28;20481;-74
2021/11/07 12:26:44;;;;;;;11.45;5.38;;;9.90;70.90;;;;;;5092166;28;20119;-74
2021/11/07 12:29:10;;;;;;;15.70;6.22;;;9.90;71.50;;;;;;5092058;28;20024;-74
2021/11/07 12:32:00;;;;;;;12.18;6.45;;;10.00;72.00;;;;;;5092211;28;20054;-75
2021/11/07 12:34:58;;;;;;;16.42;6.28;;;10.10;73.20;;;;;;5092547;28;20458;-74
2021/11/07 12:40:48;;;;;;;9.57;5.57;;;10.30;70.70;;;;;;5092461;28;20499;-74
2021/11/07 12:43:19;;;;;;;8.05;4.88;;;10.30;70.90;;;;;;5090855;28;20491;-74
2021/11/07 12:45:48;;;;;;;6.65;4.10;;;10.30;70.50;;;;;;5089574;28;20024;-74
2021/11/07 12:48:46;;;;;;;10.23;5.47;;;10.30;70.00;;;;;;5090840;28;20493;-74
2021/11/07 12:51:32;;;;;;;7.60;4.38;;;10.20;69.40;;;;;;5069775;28;20032;-74
2021/11/07 12:54:04;;;;;;;7.60;4.35;;;10.20;69.30;;;;;;5092337;28;20060;-74
2021/11/07 12:56:58;;;;;;;6.22;4.57;;;10.10;68.10;;;;;;5072306;28;20486;-74
2021/11/07 12:59:29;;;;;;;6.25;3.95;;;10.20;68.50;;;;;;5062386;28;20413;-74
2021/11/07 13:02:04;;;;;;;5.25;3.42;;;10.20;68.10;;;;;;5090741;28;20378;-74
2021/11/07 13:04:43;;;;;;;10.23;4.35;;;10.10;67.50;;;;;;5088627;28;20495;-74
2021/11/07 13:07:47;;;;;;;7.63;4.40;;;10.10;68.50;;;;;;5082603;28;20055;-74
2021/11/07 13:10:23;;;;;;;8.43;4.38;;;10.00;69.10;;;;;;5089794;28;20040;-74
2021/11/07 13:13:03;;;;;;;6.97;3.92;;;10.00;68.80;;;;;;5090944;28;20069;-74
2021/11/07 13:28:33;;;;;;;7.25;4.90;;;9.50;71.00;;;;;;5096343;28;20043;-74
2021/11/07 13:33:44;;;;;;;5.97;4.30;;;9.40;71.20;;;;;;5095666;28;20060;-74
2021/11/07 13:36:16;;;;;;;6.85;4.22;;;9.40;71.50;;;;;;5094526;28;20020;-74
2021/11/07 13:38:48;;;;;;;7.35;4.93;;;9.30;71.40;;;;;;5096100;28;20525;-74
2021/11/07 13:41:18;;;;;;;6.38;4.38;;;9.30;71.10;;;;;;5095981;28;20050;-74
2021/11/07 13:43:48;;;;;;;6.85;4.28;;;9.20;71.20;;;;;;5095841;28;20027;-74
2021/11/07 13:46:14;;;;;;;9.23;4.57;;;9.20;71.60;;;;;;5096145;28;20024;-74
2021/11/07 13:48:40;;;;;;;7.15;4.72;;;9.10;71.90;;;;;;5095724;28;20532;-74
2021/11/07 13:51:06;;;;;;;7.80;5.85;;;9.10;70.90;;;;;;5094528;28;20028;-74
2021/11/07 13:53:38;;;;;;;7.25;5.10;;;9.10;72.80;;;;;;5095648;28;20644;-74
2021/11/07 13:56:12;;;;;;;9.17;6.03;;;9.00;72.20;;;;;;5094390;28;20039;-74
2021/11/07 13:58:41;;;;;;;7.63;5.13;;;9.00;71.60;;;;;;5095579;28;20069;-74
2021/11/07 14:01:09;;;;;;;8.68;7.15;;;8.90;71.20;;;;;;5095598;28;20028;-74
2021/11/07 14:03:36;;;;;;;9.35;6.32;;;8.90;71.40;;;;;;5095454;28;20382;-74
2021/11/07 14:08:41;;;;;;;7.18;4.82;;;8.90;70.40;;;;;;5095586;28;20139;-74
2021/11/07 14:11:08;;;;;;;9.55;6.40;;;8.80;70.70;;;;;;5094064;28;20397;-74
2021/11/07 14:13:45;;;;;;;9.43;6.22;;;8.80;70.70;;;;;;5095262;28;20018;-74
2021/11/07 14:16:13;;;;;;;7.72;5.18;;;8.80;71.60;;;;;;5095306;28;20020;-74
2021/11/07 14:18:48;;;;;;;12.07;7.32;;;8.70;72.00;;;;;;5095096;28;20020;-74
2021/11/07 14:21:16;;;;;;;12.57;8.23;;;8.70;71.30;;;;;;5092817;28;20070;-75
2021/11/07 14:23:47;;;;;;;9.10;5.63;;;8.70;71.70;;;;;;5074804;28;20036;-75
2021/11/07 14:29:11;;;;;;;8.27;6.47;;;8.60;72.20;;;;;;5074796;28;20055;-74
2021/11/07 14:34:31;;;;;;;8.02;5.43;;;8.60;71.90;;;;;;5073763;28;20082;-74
2021/11/07 14:48:00;;;;;;;44.05;25.70;;;8.60;71.80;;;;;;5086646;28;20405;-74
2021/11/07 14:53:03;;;;;;;15.98;9.98;;;8.60;71.30;;;;;;5093940;28;20115;-74
2021/11/07 14:55:34;;;;;;;11.70;8.55;;;8.60;72.10;;;;;;5093742;28;20024;-75
2021/11/07 15:00:39;;;;;;;15.00;10.50;;;8.50;72.40;;;;;;5091478;28;20024;-74
2021/11/07 15:03:11;;;;;;;11.05;7.60;;;8.50;72.90;;;;;;5093854;28;20020;-74
2021/11/07 15:05:49;;;;;;;;;;;8.50;72.90;;;;;;5091194;28;20035;-74
2021/11/07 15:10:59;;;;;;;13.77;8.95;;;8.50;73.40;;;;;;5092879;28;20028;-75
2021/11/07 15:16:33;;;;;;;16.05;10.52;;;8.40;73.20;;;;;;5088469;28;20046;-74
2021/11/07 15:19:08;;;;;;;14.30;7.47;;;8.40;73.70;;;;;;5092576;28;20024;-74
2021/11/07 15:24:38;;;;;;;14.43;11.02;;;8.40;73.20;;;;;;5090943;28;20028;-74
2021/11/07 15:27:06;;;;;;;15.63;10.73;;;8.40;74.20;;;;;;5092434;28;20038;-74
2021/11/07 15:32:34;;;;;;;10.20;6.95;;;8.30;73.50;;;;;;5092476;28;20028;-74
2021/11/07 15:35:00;;;;;;;15.52;10.02;;;8.30;73.00;;;;;;5089421;28;20020;-73
2021/11/07 15:37:29;;;;;;;16.25;9.35;;;8.30;71.70;;;;;;5092635;28;20018;-73
2021/11/07 15:39:58;;;;;;;15.35;9.68;;;8.30;70.80;;;;;;5089744;28;20107;-74
2021/11/07 15:42:32;;;;;;;13.32;7.75;;;8.30;70.20;;;;;;5091450;28;20020;-73
2021/11/07 15:45:07;;;;;;;12.73;9.30;;;8.30;69.80;;;;;;5090680;28;20370;-74
2021/11/07 15:53:09;;;;;;;14.35;8.38;;;8.30;69.90;;;;;;5093835;28;20497;-75
2021/11/07 16:03:33;;;;;;;12.65;7.45;;;8.40;69.40;;;;;;5092693;28;20036;-76
2021/11/07 16:13:56;;;;;;;13.68;7.95;;;8.20;70.30;;;;;;5092242;28;20024;-75
2021/11/07 16:16:36;;;;;;;15.50;8.98;;;8.20;70.10;;;;;;5087318;28;20382;-74
2021/11/07 16:19:06;;;;;;;14.98;7.93;;;8.20;70.40;;;;;;5089605;28;20083;-75
2021/11/07 16:21:33;;;;;;;12.77;7.25;;;8.20;69.80;;;;;;5088030;28;20116;-75
2021/11/07 16:24:03;;;;;;;12.90;7.57;;;8.20;69.40;;;;;;5091881;28;20024;-75
2021/11/07 16:26:29;;;;;;;12.00;8.20;;;8.20;69.70;;;;;;5091431;28;20073;-75
2021/11/07 16:28:55;;;;;;;15.25;7.63;;;8.20;69.40;;;;;;5092113;28;20028;-74
2021/11/07 16:31:26;;;;;;;13.15;8.13;;;8.20;69.90;;;;;;5090808;28;20115;-74